Time;durP1;ratioP1;P1;durP2;ratioP2;P2;SDS_P1;SDS_P2;PMS_P1;PMS_P2;Temp;Humidity;BMP_temperature;BMP_pressure;BME280_temperature;BME280_humidity;BME280_pressure;Samples;Min_cycle;Max_cycle;Signal;HPM_P1;HPM_P2
2021/12/08 00:00:50;;;;;;;4.15;1.85;;;6.20;99.90;;;;;;2071193;28;20039;-72
2021/12/08 00:01:51;;;;;;;2.97;1.38;;;6.20;99.90;;;;;;2070648;28;20096;-72
2021/12/08 00:02:51;;;;;;;4.50;2.17;;;6.20;99.90;;;;;;2070810;28;20651;-72
2021/12/08 00:03:52;;;;;;;4.47;2.22;;;6.20;99.90;;;;;;2070472;28;20034;-72
2021/12/08 00:04:53;;;;;;;7.00;2.30;;;6.20;99.90;;;;;;2070595;28;20060;-72
2021/12/08 00:05:54;;;;;;;3.85;1.88;;;6.20;99.90;;;;;;2070323;28;20026;-72
2021/12/08 00:06:55;;;;;;;3.97;1.70;;;6.20;99.90;;;;;;2069911;28;20088;-72
2021/12/08 00:07:58;;;;;;;5.15;2.35;;;6.20;99.90;;;;;;2071219;28;20100;-72
2021/12/08 00:09:04;;;;;;;6.25;1.98;;;6.10;99.90;;;;;;2071208;28;20171;-72
2021/12/08 00:10:39;;;;;;;5.90;1.60;;;6.20;99.90;;;;;;2070349;28;20014;-72
2021/12/08 00:13:07;;;;;;;3.80;1.67;;;6.10;99.90;;;;;;2062653;28;20057;-72
2021/12/08 00:14:08;;;;;;;;;;;6.00;99.90;;;;;;2065438;28;20026;-72
2021/12/08 00:15:08;;;;;;;4.57;1.60;;;6.00;99.90;;;;;;2070608;28;19929;-72
2021/12/08 00:16:11;;;;;;;5.15;2.13;;;6.00;99.90;;;;;;2068690;28;20053;-72
2021/12/08 00:17:11;;;;;;;4.93;2.13;;;6.00;99.90;;;;;;2070470;28;20503;-72
2021/12/08 00:18:19;;;;;;;3.75;1.70;;;6.10;99.90;;;;;;2070830;28;20041;-72
2021/12/08 00:19:19;;;;;;;4.10;1.77;;;6.10;99.90;;;;;;2071146;28;20680;-71
2021/12/08 00:20:20;;;;;;;6.45;1.95;;;6.10;99.90;;;;;;2071316;28;20374;-72
2021/12/08 00:21:24;;;;;;;5.78;1.63;;;6.10;99.90;;;;;;2071088;28;20026;-72
2021/12/08 00:22:25;;;;;;;5.35;1.92;;;6.10;99.90;;;;;;2066286;28;20408;-72
2021/12/08 00:23:27;;;;;;;5.13;1.83;;;6.20;99.90;;;;;;2071022;28;20044;-72
2021/12/08 00:24:27;;;;;;;3.25;1.60;;;6.10;99.90;;;;;;2071408;28;20032;-72
2021/12/08 00:25:28;;;;;;;7.53;1.98;;;6.10;99.90;;;;;;2071022;28;20473;-72
2021/12/08 00:26:29;;;;;;;4.82;1.70;;;6.10;99.90;;;;;;2073558;28;20010;-72
2021/12/08 00:27:29;;;;;;;3.15;1.60;;;6.20;99.90;;;;;;2079147;28;20049;-72
2021/12/08 00:28:30;;;;;;;5.38;1.65;;;6.20;99.90;;;;;;2072365;28;20038;-72
2021/12/08 00:29:31;;;;;;;5.15;1.90;;;6.20;99.90;;;;;;2068180;28;20029;-72
2021/12/08 00:30:33;;;;;;;4.15;1.52;;;6.20;99.90;;;;;;2071256;28;20049;-72
2021/12/08 00:31:34;;;;;;;3.20;1.70;;;6.20;99.90;;;;;;2070202;28;20061;-72
2021/12/08 00:32:36;;;;;;;6.97;1.70;;;6.20;99.90;;;;;;2069859;28;20431;-72
2021/12/08 00:33:37;;;;;;;7.13;1.75;;;6.30;99.90;;;;;;2086628;28;20069;-71
2021/12/08 00:34:38;;;;;;;3.90;1.60;;;6.30;99.90;;;;;;2087032;28;20115;-72
2021/12/08 00:35:40;;;;;;;4.22;1.33;;;6.30;99.90;;;;;;2070836;28;20360;-72
2021/12/08 00:36:44;;;;;;;4.57;1.75;;;6.30;99.90;;;;;;2071176;28;20435;-72
2021/12/08 00:37:45;;;;;;;5.05;1.95;;;6.30;99.90;;;;;;2070719;28;20076;-72
2021/12/08 00:38:46;;;;;;;4.88;1.70;;;6.30;99.90;;;;;;2070449;28;20041;-72
2021/12/08 00:39:47;;;;;;;3.08;1.30;;;6.40;99.90;;;;;;2071138;28;20026;-72
2021/12/08 00:40:49;;;;;;;4.20;1.50;;;6.40;99.90;;;;;;2070978;28;20100;-71
2021/12/08 00:41:49;;;;;;;7.53;1.65;;;6.40;99.90;;;;;;2070372;28;20017;-71
2021/12/08 00:42:50;;;;;;;4.40;1.73;;;6.40;99.90;;;;;;2070924;28;20045;-72
2021/12/08 00:43:51;;;;;;;2.95;1.40;;;6.40;99.90;;;;;;2071392;28;20026;-71
2021/12/08 00:44:51;;;;;;;2.42;1.35;;;6.40;99.90;;;;;;2071298;28;20033;-71
2021/12/08 00:45:53;;;;;;;5.70;1.98;;;6.40;99.90;;;;;;2070594;28;20636;-71
2021/12/08 00:46:54;;;;;;;4.60;1.67;;;6.50;99.90;;;;;;2070986;28;20033;-71
2021/12/08 00:47:55;;;;;;;4.18;1.42;;;6.50;99.90;;;;;;2071421;28;20037;-71
2021/12/08 00:48:55;;;;;;;4.57;1.65;;;6.50;99.90;;;;;;2070658;28;20030;-72
2021/12/08 00:49:56;;;;;;;2.22;1.27;;;6.50;99.90;;;;;;2071320;28;20022;-72
2021/12/08 00:50:56;;;;;;;2.10;1.45;;;6.50;99.90;;;;;;2070789;28;20028;-72
2021/12/08 00:51:57;;;;;;;4.20;2.00;;;6.60;99.90;;;;;;2070832;28;20030;-72
2021/12/08 00:52:58;;;;;;;2.50;1.30;;;6.60;99.90;;;;;;2070740;28;20030;-72
2021/12/08 00:53:59;;;;;;;5.22;1.40;;;6.60;99.90;;;;;;2070953;28;20105;-72
2021/12/08 00:55:01;;;;;;;5.28;1.38;;;6.60;99.90;;;;;;2071088;28;20229;-71
2021/12/08 00:56:01;;;;;;;4.50;1.75;;;6.70;99.90;;;;;;2070827;28;20393;-72
2021/12/08 00:57:03;;;;;;;4.30;1.80;;;6.60;99.90;;;;;;2070919;28;20029;-72
2021/12/08 00:58:05;;;;;;;2.28;1.45;;;6.70;99.90;;;;;;2070363;28;20058;-72
2021/12/08 00:59:05;;;;;;;3.42;1.38;;;6.70;99.90;;;;;;2070577;28;20037;-72
2021/12/08 01:00:18;;;;;;;3.90;1.30;;;6.70;99.90;;;;;;2070949;28;20072;-72
2021/12/08 01:01:18;;;;;;;3.95;1.50;;;6.70;99.90;;;;;;2070077;28;20482;-72
2021/12/08 01:02:19;;;;;;;2.33;1.70;;;6.70;99.90;;;;;;2070508;28;20456;-72
2021/12/08 01:03:20;;;;;;;4.53;1.45;;;6.70;99.90;;;;;;2071175;28;20117;-72
2021/12/08 01:04:21;;;;;;;6.35;1.60;;;6.70;99.90;;;;;;2070793;28;20033;-72
2021/12/08 01:05:25;;;;;;;3.85;1.52;;;6.70;99.90;;;;;;2071197;28;20029;-72
2021/12/08 01:06:26;;;;;;;5.63;1.88;;;6.70;99.90;;;;;;2071198;28;20367;-72
2021/12/08 01:07:26;;;;;;;4.05;1.67;;;6.80;99.90;;;;;;2071301;28;20145;-72
2021/12/08 01:08:28;;;;;;;2.03;1.58;;;6.80;99.90;;;;;;2070221;28;20018;-72
2021/12/08 01:09:31;;;;;;;3.55;1.40;;;6.80;99.90;;;;;;2070364;28;20560;-72
2021/12/08 01:10:32;;;;;;;5.70;1.52;;;6.80;99.90;;;;;;2067933;28;20026;-72
2021/12/08 01:11:33;;;;;;;3.17;1.33;;;6.80;99.90;;;;;;2070786;28;20076;-72
2021/12/08 01:12:33;;;;;;;3.72;1.73;;;6.80;99.90;;;;;;2070204;28;20100;-72
2021/12/08 01:13:34;;;;;;;2.80;1.55;;;6.80;99.90;;;;;;2071178;28;20026;-72
2021/12/08 01:14:35;;;;;;;2.63;1.60;;;6.80;99.90;;;;;;2071055;28;20022;-72
2021/12/08 01:15:39;;;;;;;4.28;1.75;;;6.80;99.90;;;;;;2070729;28;20362;-72
2021/12/08 01:16:39;;;;;;;5.25;1.52;;;6.80;99.90;;;;;;2070902;28;20034;-72
2021/12/08 01:17:40;;;;;;;3.10;1.40;;;6.80;99.90;;;;;;2070954;28;20037;-72
2021/12/08 01:18:41;;;;;;;3.20;1.52;;;6.80;99.90;;;;;;2071224;28;20050;-72
2021/12/08 01:19:42;;;;;;;2.08;1.30;;;6.80;99.90;;;;;;2071178;28;20026;-72
2021/12/08 01:20:43;;;;;;;4.38;1.77;;;6.80;99.90;;;;;;2070908;28;20034;-72
2021/12/08 01:21:44;;;;;;;5.07;1.73;;;6.80;99.90;;;;;;2070601;28;20033;-72
2021/12/08 01:22:45;;;;;;;4.88;2.05;;;6.80;99.90;;;;;;2070530;28;20058;-72
2021/12/08 01:23:46;;;;;;;2.33;1.48;;;6.80;99.90;;;;;;2061922;28;20027;-72
2021/12/08 01:24:47;;;;;;;2.25;1.60;;;6.80;99.90;;;;;;2065710;28;20034;-72
2021/12/08 01:25:47;;;;;;;3.30;1.80;;;6.80;99.90;;;;;;2070936;28;20109;-72
2021/12/08 01:26:49;;;;;;;3.65;2.00;;;6.80;99.90;;;;;;2075477;28;20034;-72
2021/12/08 01:27:50;;;;;;;1.40;1.30;;;6.80;99.90;;;;;;2076538;28;20037;-72
2021/12/08 01:28:52;;;;;;;4.15;1.60;;;6.80;99.90;;;;;;2071232;28;20033;-72
2021/12/08 01:29:52;;;;;;;3.92;1.60;;;6.80;99.90;;;;;;2073274;28;20014;-72
2021/12/08 01:30:55;;;;;;;4.22;1.73;;;6.80;99.90;;;;;;2076200;28;20032;-72
2021/12/08 01:31:56;;;;;;;3.83;2.17;;;6.80;99.90;;;;;;2069728;28;20038;-72
2021/12/08 01:32:57;;;;;;;3.25;1.92;;;6.80;99.90;;;;;;2070866;28;20536;-72
2021/12/08 01:33:57;;;;;;;4.85;2.30;;;6.80;99.90;;;;;;2071119;28;20101;-72
2021/12/08 01:34:58;;;;;;;3.95;1.50;;;6.80;99.90;;;;;;2071280;28;20385;-72
2021/12/08 01:36:02;;;;;;;3.03;1.50;;;6.80;99.90;;;;;;2076561;28;20041;-72
2021/12/08 01:37:02;;;;;;;4.95;1.80;;;6.80;99.90;;;;;;2074301;28;20469;-72
2021/12/08 01:38:03;;;;;;;3.55;1.63;;;6.80;99.90;;;;;;2072252;28;20018;-72
2021/12/08 01:39:05;;;;;;;3.80;1.95;;;6.80;99.90;;;;;;2072003;28;20030;-72
2021/12/08 01:40:09;;;;;;;3.78;1.90;;;6.80;99.90;;;;;;2072554;28;20038;-72
2021/12/08 01:41:10;;;;;;;3.85;1.67;;;6.70;99.90;;;;;;2071642;28;20029;-72
2021/12/08 01:42:16;;;;;;;3.95;1.80;;;6.70;99.90;;;;;;2071051;28;20030;-72
2021/12/08 01:43:28;;;;;;;4.80;1.70;;;6.70;99.90;;;;;;2066395;28;20031;-72
2021/12/08 01:45:59;;;;;;;5.43;1.80;;;6.70;99.90;;;;;;2072368;28;20390;-72
2021/12/08 01:47:00;;;;;;;3.22;1.77;;;6.60;99.90;;;;;;2072076;28;20037;-72
2021/12/08 01:48:10;;;;;;;3.55;1.50;;;6.60;99.90;;;;;;2071987;28;20030;-72
2021/12/08 01:49:11;;;;;;;4.63;1.70;;;6.60;99.90;;;;;;2072489;28;20045;-72
2021/12/08 01:50:11;;;;;;;2.38;1.65;;;6.60;99.90;;;;;;2071711;28;20032;-72
2021/12/08 01:51:15;;;;;;;3.22;2.17;;;6.60;99.90;;;;;;2071613;28;20409;-72
2021/12/08 01:52:16;;;;;;;2.40;1.42;;;6.60;99.90;;;;;;2071633;28;20026;-72
2021/12/08 01:53:18;;;;;;;2.65;1.60;;;6.60;99.90;;;;;;2072311;28;20026;-72
2021/12/08 01:54:18;;;;;;;2.38;1.58;;;6.60;99.90;;;;;;2072500;28;20089;-72
2021/12/08 01:55:19;;;;;;;4.13;1.73;;;6.60;99.90;;;;;;2071497;28;20037;-72
2021/12/08 01:56:23;;;;;;;3.90;2.13;;;6.60;99.90;;;;;;2071882;28;20207;-72
2021/12/08 01:57:23;;;;;;;4.68;1.80;;;6.60;99.90;;;;;;2079445;28;20036;-72
2021/12/08 01:58:25;;;;;;;5.00;2.00;;;6.60;99.90;;;;;;2071897;28;20026;-72
2021/12/08 01:59:26;;;;;;;2.03;1.38;;;6.60;99.90;;;;;;2071092;28;20032;-72
2021/12/08 02:00:35;;;;;;;2.90;1.55;;;6.60;99.90;;;;;;2071544;28;20030;-71
2021/12/08 02:01:40;;;;;;;3.08;1.67;;;6.60;99.90;;;;;;2072195;28;20061;-72
2021/12/08 02:02:42;;;;;;;2.65;1.40;;;6.60;99.90;;;;;;2071534;28;20022;-72
2021/12/08 02:03:43;;;;;;;3.28;1.63;;;6.60;99.90;;;;;;2071465;28;20033;-72
2021/12/08 02:04:43;;;;;;;3.90;1.73;;;6.60;99.90;;;;;;2071795;28;20028;-72
2021/12/08 02:05:45;;;;;;;3.90;1.80;;;6.60;99.90;;;;;;2072064;28;20033;-72
2021/12/08 02:06:47;;;;;;;4.32;2.15;;;6.60;99.90;;;;;;2071644;28;20030;-72
2021/12/08 02:07:47;;;;;;;2.53;1.80;;;6.70;99.90;;;;;;2071272;28;20033;-72
2021/12/08 02:08:51;;;;;;;3.00;1.92;;;6.70;99.90;;;;;;2072208;28;20026;-71
2021/12/08 02:09:52;;;;;;;3.85;1.60;;;6.70;99.90;;;;;;2071867;28;20033;-72
2021/12/08 02:10:53;;;;;;;2.95;1.80;;;6.70;99.90;;;;;;2070893;28;20022;-72
2021/12/08 02:11:56;;;;;;;5.95;1.95;;;6.70;99.90;;;;;;2071771;28;20053;-72
2021/12/08 02:12:57;;;;;;;4.03;1.85;;;6.70;99.90;;;;;;2071922;28;20149;-72
2021/12/08 02:14:00;;;;;;;1.92;1.52;;;6.60;99.90;;;;;;2071830;28;20080;-72
2021/12/08 02:15:01;;;;;;;2.38;1.50;;;6.70;99.90;;;;;;2072409;28;20021;-72
2021/12/08 02:16:04;;;;;;;2.47;1.65;;;6.70;99.90;;;;;;2071974;28;20034;-71
2021/12/08 02:17:10;;;;;;;3.72;1.98;;;6.60;99.90;;;;;;2072220;28;20025;-71
2021/12/08 02:18:14;;;;;;;4.78;1.98;;;6.60;99.90;;;;;;2071895;28;20482;-71
2021/12/08 02:19:14;;;;;;;2.65;1.90;;;6.70;99.90;;;;;;2071886;28;20037;-71
2021/12/08 02:20:16;;;;;;;3.40;2.00;;;6.70;99.90;;;;;;2071728;28;20057;-72
2021/12/08 02:21:21;;;;;;;6.47;2.00;;;6.70;99.90;;;;;;2072350;28;20041;-72
2021/12/08 02:22:22;;;;;;;3.30;1.77;;;6.70;99.90;;;;;;2071508;28;20829;-72
2021/12/08 02:23:22;;;;;;;4.75;2.28;;;6.70;99.90;;;;;;2072093;28;20374;-72
2021/12/08 02:24:23;;;;;;;2.97;1.73;;;6.70;99.90;;;;;;2072101;28;20474;-72
2021/12/08 02:25:26;;;;;;;3.15;1.40;;;6.70;99.90;;;;;;2072282;28;20032;-71
2021/12/08 02:26:27;;;;;;;5.10;1.98;;;6.70;99.90;;;;;;2071812;28;20449;-71
2021/12/08 02:27:32;;;;;;;2.65;1.77;;;6.70;99.90;;;;;;2074298;28;20029;-71
2021/12/08 02:28:33;;;;;;;4.97;1.60;;;6.70;99.90;;;;;;2071574;28;20168;-71
2021/12/08 02:29:51;;;;;;;2.30;1.63;;;6.70;99.90;;;;;;2071316;28;20068;-71
2021/12/08 02:30:59;;;;;;;3.25;1.38;;;6.70;99.90;;;;;;2071069;28;20084;-71
2021/12/08 02:32:11;;;;;;;3.17;1.60;;;6.60;99.90;;;;;;2072154;28;20564;-72
2021/12/08 02:48:52;;;;;;;2.85;1.48;;;6.80;99.90;;;;;;2071098;28;20018;-71
2021/12/08 02:49:53;;;;;;;3.40;1.85;;;6.80;99.90;;;;;;2072110;28;20026;-71
2021/12/08 02:50:53;;;;;;;3.22;1.73;;;6.80;99.90;;;;;;2071562;28;20030;-72
2021/12/08 02:51:54;;;;;;;3.20;1.67;;;6.90;99.90;;;;;;2072137;28;20041;-72
2021/12/08 02:52:56;;;;;;;2.83;1.95;;;6.90;99.90;;;;;;2071350;28;20014;-72
2021/12/08 02:54:00;;;;;;;4.22;1.83;;;6.90;99.90;;;;;;2072047;28;20032;-72
2021/12/08 02:55:07;;;;;;;3.10;1.88;;;6.90;99.90;;;;;;2071343;28;20026;-72
2021/12/08 02:56:07;;;;;;;2.53;1.77;;;6.90;99.90;;;;;;2071801;28;20078;-72
2021/12/08 02:57:09;;;;;;;2.72;1.75;;;6.90;99.90;;;;;;2071706;28;20068;-71
2021/12/08 02:58:10;;;;;;;2.38;1.58;;;7.00;99.90;;;;;;2071433;28;20029;-72
2021/12/08 02:59:11;;;;;;;2.78;1.63;;;7.00;99.90;;;;;;2071623;28;20060;-72
2021/12/08 03:00:16;;;;;;;2.58;1.63;;;7.00;99.90;;;;;;2071525;28;20421;-72
2021/12/08 03:01:17;;;;;;;3.75;1.60;;;7.00;99.90;;;;;;2080619;28;20021;-72
2021/12/08 03:02:18;;;;;;;2.95;1.80;;;7.00;99.90;;;;;;2080249;28;20035;-71
2021/12/08 03:03:19;;;;;;;2.65;1.70;;;7.00;99.90;;;;;;2073095;28;20544;-71
2021/12/08 03:04:19;;;;;;;3.58;2.00;;;7.10;99.90;;;;;;2073245;28;20065;-71
2021/12/08 03:05:20;;;;;;;2.50;1.60;;;7.10;99.90;;;;;;2072908;28;20036;-72
2021/12/08 03:06:21;;;;;;;1.88;1.67;;;7.00;99.90;;;;;;2073244;28;20026;-72
2021/12/08 03:07:22;;;;;;;3.80;1.35;;;7.10;99.90;;;;;;2072944;28;20100;-71
2021/12/08 03:08:22;;;;;;;2.38;1.48;;;7.10;99.90;;;;;;2072857;28;20097;-72
2021/12/08 03:09:23;;;;;;;2.88;1.58;;;7.10;99.90;;;;;;2073136;28;20022;-71
2021/12/08 03:10:27;;;;;;;3.55;1.67;;;7.10;99.90;;;;;;2072848;28;20029;-71
2021/12/08 03:11:28;;;;;;;3.05;1.85;;;7.10;99.90;;;;;;2073043;28;20049;-72
2021/12/08 03:12:30;;;;;;;3.45;1.75;;;7.20;99.90;;;;;;2072520;28;20018;-72
2021/12/08 03:13:41;;;;;;;3.72;1.80;;;7.20;99.90;;;;;;2072835;28;20026;-71
2021/12/08 03:14:42;;;;;;;3.03;1.60;;;7.20;99.90;;;;;;2073197;28;20050;-72
2021/12/08 03:15:43;;;;;;;4.25;1.90;;;7.20;99.90;;;;;;2072973;28;20026;-72
2021/12/08 03:16:51;;;;;;;3.35;1.63;;;7.20;99.90;;;;;;2072841;28;20096;-71
2021/12/08 03:17:51;;;;;;;2.78;1.83;;;7.20;99.90;;;;;;2072411;28;20038;-71
2021/12/08 03:18:53;;;;;;;2.08;1.50;;;7.20;99.90;;;;;;2072243;28;20497;-72
2021/12/08 03:19:53;;;;;;;2.83;1.92;;;7.20;99.90;;;;;;2072908;28;20026;-72
2021/12/08 03:20:54;;;;;;;3.05;1.90;;;7.20;99.90;;;;;;2073165;28;20034;-71
2021/12/08 03:21:55;;;;;;;3.15;1.48;;;7.20;99.90;;;;;;2072672;28;20396;-72
2021/12/08 03:23:01;;;;;;;2.75;1.80;;;7.20;99.90;;;;;;2072227;28;20052;-72
2021/12/08 03:25:10;;;;;;;3.30;1.60;;;7.30;99.90;;;;;;2072992;28;20061;-71
2021/12/08 03:26:11;;;;;;;2.75;1.63;;;7.30;99.90;;;;;;2072859;28;20080;-71
2021/12/08 03:27:15;;;;;;;2.25;1.80;;;7.30;99.90;;;;;;2072661;28;20101;-72
2021/12/08 03:28:20;;;;;;;3.28;1.55;;;7.30;99.90;;;;;;2072642;28;20092;-72
2021/12/08 03:29:37;;;;;;;1.42;1.30;;;7.30;99.90;;;;;;2073006;28;20014;-71
2021/12/08 03:30:51;;;;;;;2.97;1.73;;;7.30;99.90;;;;;;2072911;28;20014;-71
2021/12/08 03:31:54;;;;;;;2.63;1.30;;;7.30;99.90;;;;;;2073109;28;20045;-71
2021/12/08 03:32:57;;;;;;;2.67;1.10;;;7.30;99.90;;;;;;2072377;28;20455;-71
2021/12/08 03:33:58;;;;;;;3.40;1.40;;;7.40;99.90;;;;;;2072809;28;20028;-71
2021/12/08 03:34:59;;;;;;;3.40;1.45;;;7.40;99.90;;;;;;2071992;28;20029;-71
2021/12/08 03:36:00;;;;;;;6.70;1.92;;;7.40;99.90;;;;;;2072256;28;20028;-71
2021/12/08 03:37:00;;;;;;;4.10;2.03;;;7.40;99.90;;;;;;2072561;28;20382;-71
2021/12/08 03:38:01;;;;;;;3.22;1.73;;;7.40;99.90;;;;;;2072622;28;20030;-71
2021/12/08 03:39:03;;;;;;;2.95;1.10;;;7.40;99.90;;;;;;2072473;28;20470;-71
2021/12/08 03:40:32;;;;;;;2.05;1.42;;;7.40;99.90;;;;;;2080539;28;20402;-71
2021/12/08 03:41:34;;;;;;;3.50;1.40;;;7.40;99.90;;;;;;2063209;28;20038;-72
2021/12/08 03:42:37;;;;;;;3.08;1.10;;;7.40;99.90;;;;;;2066383;28;20026;-72
2021/12/08 03:43:38;;;;;;;2.95;1.70;;;7.50;99.90;;;;;;2072994;28;20468;-72
2021/12/08 03:44:39;;;;;;;3.97;1.38;;;7.50;99.90;;;;;;2072591;28;20378;-72
2021/12/08 03:45:46;;;;;;;4.72;1.45;;;7.50;99.90;;;;;;2071517;28;20025;-72
2021/12/08 03:46:47;;;;;;;2.90;1.33;;;7.50;99.90;;;;;;2072859;28;20041;-72
2021/12/08 03:47:58;;;;;;;2.30;1.23;;;7.50;99.90;;;;;;2072809;28;20520;-72
2021/12/08 03:49:00;;;;;;;1.67;1.40;;;7.50;99.90;;;;;;2072479;28;20105;-71
2021/12/08 03:50:03;;;;;;;3.10;1.48;;;7.50;99.90;;;;;;2072574;28;20068;-71
2021/12/08 03:51:03;;;;;;;2.55;1.40;;;7.50;99.90;;;;;;2072488;28;20022;-71
2021/12/08 03:52:05;;;;;;;1.85;1.40;;;7.60;99.90;;;;;;2071964;28;20069;-71
2021/12/08 03:53:07;;;;;;;3.97;1.27;;;7.60;99.90;;;;;;2072080;28;20037;-71
2021/12/08 03:54:09;;;;;;;4.32;1.50;;;7.60;99.90;;;;;;2072792;28;20032;-71
2021/12/08 03:55:14;;;;;;;3.25;1.10;;;7.60;99.90;;;;;;2067606;28;20907;-72
2021/12/08 03:56:15;;;;;;;3.25;1.63;;;7.60;99.90;;;;;;2073798;28;20371;-72
2021/12/08 03:57:16;;;;;;;2.97;1.33;;;7.60;99.90;;;;;;2077436;28;20018;-71
2021/12/08 03:58:18;;;;;;;3.45;1.23;;;7.60;99.90;;;;;;2073142;28;20056;-71
2021/12/08 03:59:18;;;;;;;4.03;1.40;;;7.70;99.90;;;;;;2072123;28;20069;-71
2021/12/08 04:00:23;;;;;;;3.75;1.30;;;7.70;99.90;;;;;;2072539;28;20030;-71
2021/12/08 04:01:23;;;;;;;4.65;1.48;;;7.70;99.90;;;;;;2072702;28;20403;-71
2021/12/08 04:02:24;;;;;;;2.88;1.40;;;7.70;99.90;;;;;;2071168;28;20079;-71
2021/12/08 04:03:28;;;;;;;4.63;1.33;;;7.70;99.90;;;;;;2071886;28;20033;-71
2021/12/08 04:04:30;;;;;;;1.35;1.10;;;7.70;99.90;;;;;;2071898;28;20022;-71
2021/12/08 04:05:51;;;;;;;2.90;1.15;;;7.70;99.90;;;;;;2070989;28;20067;-71
2021/12/08 04:06:52;;;;;;;3.25;1.48;;;7.70;99.90;;;;;;2071165;28;20034;-71
2021/12/08 04:07:53;;;;;;;3.15;1.23;;;7.70;99.90;;;;;;2070350;28;20033;-71
2021/12/08 04:08:56;;;;;;;3.83;1.50;;;7.70;99.90;;;;;;2069896;28;20018;-71
2021/12/08 04:09:57;;;;;;;2.85;1.30;;;7.80;99.90;;;;;;2071313;28;20018;-71
2021/12/08 04:11:00;;;;;;;4.30;1.45;;;7.70;99.90;;;;;;2071632;28;20463;-71
2021/12/08 04:12:02;;;;;;;3.47;1.48;;;7.80;99.90;;;;;;2071003;28;20052;-71
2021/12/08 04:13:02;;;;;;;3.17;1.52;;;7.80;99.90;;;;;;2070969;28;20025;-71
2021/12/08 04:14:07;;;;;;;3.78;1.50;;;7.80;99.90;;;;;;2071189;28;20053;-71
2021/12/08 04:15:08;;;;;;;4.25;1.58;;;7.80;99.90;;;;;;2071666;28;20069;-71
2021/12/08 04:16:11;;;;;;;5.25;1.50;;;7.80;99.90;;;;;;2071311;28;20077;-72
2021/12/08 04:17:19;;;;;;;4.07;1.38;;;7.90;99.90;;;;;;2071548;28;20022;-71
2021/12/08 04:18:20;;;;;;;4.68;1.40;;;7.90;99.90;;;;;;2071039;28;20026;-71
2021/12/08 04:19:22;;;;;;;4.95;1.77;;;7.90;99.90;;;;;;2071546;28;20062;-71
2021/12/08 04:20:50;;;;;;;1.95;1.52;;;7.90;99.90;;;;;;2071193;28;20042;-71
2021/12/08 04:21:54;;;;;;;2.65;1.20;;;7.80;99.90;;;;;;2071094;28;20018;-71
2021/12/08 04:22:56;;;;;;;2.83;1.42;;;7.80;99.90;;;;;;2069934;28;20029;-72
2021/12/08 04:23:57;;;;;;;4.85;1.45;;;7.90;99.90;;;;;;2070758;28;20034;-71
2021/12/08 04:25:02;;;;;;;2.28;1.30;;;7.90;99.90;;;;;;2071408;28;20026;-71
2021/12/08 04:26:08;;;;;;;2.63;1.40;;;7.90;99.90;;;;;;2071376;28;20071;-71
2021/12/08 04:27:14;;;;;;;4.72;1.70;;;7.90;99.90;;;;;;2071415;28;20082;-72
2021/12/08 04:28:20;;;;;;;2.45;1.67;;;7.90;99.90;;;;;;2070840;28;20029;-71
2021/12/08 04:29:24;;;;;;;2.65;1.20;;;7.90;99.90;;;;;;2070561;28;20113;-71
2021/12/08 04:30:41;;;;;;;3.40;1.50;;;7.90;99.90;;;;;;2070585;28;20038;-71
2021/12/08 04:31:43;;;;;;;3.75;1.30;;;7.90;99.90;;;;;;2071232;28;20393;-71
2021/12/08 04:32:44;;;;;;;2.80;1.73;;;7.90;99.90;;;;;;2070408;28;20040;-71
2021/12/08 04:33:47;;;;;;;3.08;1.40;;;7.90;99.90;;;;;;2068310;28;20116;-71
2021/12/08 04:34:52;;;;;;;4.47;1.33;;;8.00;99.90;;;;;;2071461;28;20120;-71
2021/12/08 04:35:54;;;;;;;4.30;1.58;;;8.00;99.90;;;;;;2077473;28;20104;-71
2021/12/08 04:37:01;;;;;;;4.90;1.60;;;8.00;99.90;;;;;;2078433;28;20116;-71
2021/12/08 04:38:11;;;;;;;1.98;1.40;;;8.00;99.90;;;;;;2071180;28;20057;-71
2021/12/08 04:39:24;;;;;;;5.43;1.40;;;8.00;99.90;;;;;;2071195;28;20479;-71
2021/12/08 04:40:41;;;;;;;4.90;1.88;;;8.00;99.90;;;;;;2079000;28;20033;-71
2021/12/08 04:41:47;;;;;;;1.45;1.00;;;8.00;99.90;;;;;;2068962;28;20084;-72
2021/12/08 04:43:29;;;;;;;5.85;1.58;;;7.90;99.90;;;;;;2066194;28;20033;-71
2021/12/08 04:45:27;;;;;;;3.35;1.63;;;8.00;99.90;;;;;;2077135;28;20057;-71
2021/12/08 04:50:39;;;;;;;4.82;1.60;;;8.00;99.90;;;;;;2071279;28;20033;-72
2021/12/08 04:53:03;;;;;;;;;;;7.90;99.90;;;;;;2070021;28;20026;-72
2021/12/08 05:07:59;;;;;;;2.85;1.30;;;7.90;99.90;;;;;;2070678;28;20052;-71
2021/12/08 05:08:59;;;;;;;2.63;1.55;;;7.90;99.90;;;;;;2071161;28;20099;-71
2021/12/08 05:10:08;;;;;;;2.67;1.27;;;7.90;99.90;;;;;;2070774;28;20133;-71
2021/12/08 05:11:24;;;;;;;3.15;1.23;;;7.90;99.90;;;;;;2070902;28;20156;-71
2021/12/08 05:12:29;;;;;;;4.25;1.58;;;7.90;99.90;;;;;;2072176;28;20095;-71
2021/12/08 05:13:30;;;;;;;3.17;1.50;;;7.90;99.90;;;;;;2073138;28;20797;-72
2021/12/08 05:14:39;;;;;;;1.77;1.17;;;7.90;99.90;;;;;;2072714;28;20026;-71
2021/12/08 05:15:52;;;;;;;8.17;2.00;;;7.90;99.90;;;;;;2073025;28;20032;-71
2021/12/08 05:17:01;;;;;;;3.50;1.85;;;7.90;99.90;;;;;;2072453;28;20265;-71
2021/12/08 05:18:14;;;;;;;3.15;1.80;;;7.90;99.90;;;;;;2072892;28;20045;-71
2021/12/08 05:19:17;;;;;;;3.28;1.70;;;7.90;99.90;;;;;;2072789;28;20500;-71
2021/12/08 05:20:21;;;;;;;2.85;1.52;;;7.90;99.90;;;;;;2072747;28;20034;-71
2021/12/08 05:21:33;;;;;;;2.60;1.58;;;7.90;99.90;;;;;;2072653;28;20026;-71
2021/12/08 05:22:39;;;;;;;2.83;1.70;;;7.90;99.90;;;;;;2072314;28;20025;-71
2021/12/08 05:23:48;;;;;;;5.20;1.65;;;7.90;99.90;;;;;;2072705;28;20022;-72
2021/12/08 05:24:53;;;;;;;3.75;1.35;;;7.90;99.90;;;;;;2072352;28;20022;-71
2021/12/08 05:25:56;;;;;;;3.72;1.80;;;7.90;99.90;;;;;;2072921;28;20109;-71
2021/12/08 05:27:04;;;;;;;3.50;1.63;;;7.90;99.90;;;;;;2071855;28;20054;-71
2021/12/08 05:28:08;;;;;;;4.22;2.03;;;7.90;99.90;;;;;;2071830;28;20022;-71
2021/12/08 05:29:21;;;;;;;4.70;1.95;;;7.90;99.90;;;;;;2072533;28;20063;-71
2021/12/08 05:30:54;;;;;;;2.75;1.48;;;7.90;99.90;;;;;;2064713;28;20018;-71
2021/12/08 05:31:57;;;;;;;3.72;1.40;;;7.80;99.90;;;;;;2063529;28;20225;-71
2021/12/08 05:32:59;;;;;;;3.15;1.77;;;7.80;99.90;;;;;;2067111;28;20022;-71
2021/12/08 05:34:00;;;;;;;3.13;1.75;;;7.80;99.90;;;;;;2072907;28;20037;-71
2021/12/08 05:35:02;;;;;;;3.58;1.85;;;7.80;99.90;;;;;;2072524;28;20041;-71
2021/12/08 05:36:05;;;;;;;3.10;1.85;;;7.80;99.90;;;;;;2072296;28;20072;-71
2021/12/08 05:37:08;;;;;;;5.60;2.00;;;7.90;99.90;;;;;;2072408;28;20028;-71
2021/12/08 05:38:09;;;;;;;3.70;1.60;;;7.80;99.90;;;;;;2072504;28;20038;-71
2021/12/08 05:39:16;;;;;;;3.05;1.80;;;7.80;99.90;;;;;;2072414;28;20030;-71
2021/12/08 05:40:22;;;;;;;3.65;1.88;;;7.90;99.90;;;;;;2072708;28;20065;-71
2021/12/08 05:41:30;;;;;;;6.40;1.88;;;7.80;99.90;;;;;;2069963;28;20033;-71
2021/12/08 05:42:35;;;;;;;5.30;1.67;;;7.90;99.90;;;;;;2072204;28;20493;-71
2021/12/08 05:43:36;;;;;;;8.52;2.00;;;7.90;99.90;;;;;;2072440;28;20294;-71
2021/12/08 05:44:38;;;;;;;3.38;2.03;;;7.80;99.90;;;;;;2072968;28;20032;-71
2021/12/08 05:45:41;;;;;;;5.90;2.10;;;7.80;99.90;;;;;;2073346;28;20501;-71
2021/12/08 05:46:47;;;;;;;5.32;1.80;;;7.80;99.90;;;;;;2072799;28;20693;-71
2021/12/08 05:47:50;;;;;;;3.83;1.98;;;7.90;99.90;;;;;;2072317;28;20029;-72
2021/12/08 05:48:51;;;;;;;3.65;1.95;;;7.90;99.90;;;;;;2072704;28;20034;-71
2021/12/08 05:49:54;;;;;;;5.78;1.60;;;7.90;99.90;;;;;;2072362;28;20136;-71
2021/12/08 05:51:00;;;;;;;7.47;2.00;;;7.90;99.90;;;;;;2071379;28;20112;-71
2021/12/08 05:52:02;;;;;;;3.30;1.55;;;7.90;99.90;;;;;;2071892;28;20149;-71
2021/12/08 05:53:03;;;;;;;4.57;2.30;;;7.90;99.90;;;;;;2071944;28;20438;-71
2021/12/08 05:54:13;;;;;;;4.90;2.00;;;7.90;99.90;;;;;;2072148;28;20681;-71
2021/12/08 05:55:13;;;;;;;3.25;1.73;;;7.90;99.90;;;;;;2072535;28;20363;-71
2021/12/08 05:56:16;;;;;;;4.05;1.90;;;7.90;99.90;;;;;;2070285;28;20076;-72
2021/12/08 05:57:29;;;;;;;3.72;1.85;;;7.90;99.90;;;;;;2072246;28;20409;-72
2021/12/08 05:58:30;;;;;;;3.72;1.80;;;7.90;99.90;;;;;;2072172;28;20052;-72
2021/12/08 05:59:31;;;;;;;4.32;2.33;;;7.90;99.90;;;;;;2072608;28;20633;-71
2021/12/08 06:00:37;;;;;;;4.78;2.15;;;7.90;99.90;;;;;;2072128;28;20026;-71
2021/12/08 06:01:51;;;;;;;5.80;1.90;;;7.90;99.90;;;;;;2072383;28;20110;-71
2021/12/08 06:02:54;;;;;;;4.65;1.85;;;7.90;99.90;;;;;;2071213;28;20084;-71
2021/12/08 06:03:55;;;;;;;5.43;1.90;;;7.90;99.90;;;;;;2071405;28;20048;-72
2021/12/08 06:04:57;;;;;;;5.65;2.47;;;7.90;99.90;;;;;;2072018;28;20037;-71
2021/12/08 06:05:58;;;;;;;6.22;2.30;;;7.90;99.90;;;;;;2070888;28;20080;-71
2021/12/08 06:07:00;;;;;;;3.13;1.60;;;7.90;99.90;;;;;;2072365;28;20101;-71
2021/12/08 06:08:01;;;;;;;5.22;2.03;;;7.90;99.90;;;;;;2072347;28;20034;-71
2021/12/08 06:09:05;;;;;;;4.78;2.13;;;7.90;99.90;;;;;;2072273;28;20088;-71
2021/12/08 06:10:17;;;;;;;5.78;2.20;;;7.90;99.90;;;;;;2072042;28;20014;-71
2021/12/08 06:11:18;;;;;;;6.85;2.38;;;7.90;99.90;;;;;;2072411;28;20030;-71
2021/12/08 06:12:19;;;;;;;5.32;2.30;;;7.80;99.90;;;;;;2071881;28;20017;-71
2021/12/08 06:13:20;;;;;;;4.35;2.20;;;7.90;99.90;;;;;;2072117;28;20025;-71
2021/12/08 06:14:24;;;;;;;5.45;2.25;;;7.90;99.90;;;;;;2072534;28;20022;-71
2021/12/08 06:15:25;;;;;;;6.50;2.30;;;7.90;99.90;;;;;;2071686;28;20032;-71